Main page
METAR-TAF:

METAR-TAF

Airports :

Washington Dulles International Airport

Washington, Virginia, United States

latitude: 38-56-05N, longitude: 077-26-51W, elevation: 95 m

Current weather observation

The report was made 38 minutes ago, at 10:52 UTC
Calm wind
Temperature 18°C
Humidity 100%
Pressure 1016 hPa
Visibility: 16.1 km
Scattered clouds at a height of 25000 ft

METAR: KIAD 151052Z 00000KT 10SM SCT250 18/18 A3000 RMK AO2 SLP156 T01830183

Time: 07:30 (11:30 UTC)

Forecast

The report was made 2 hours and 31 minutes ago, at 08:59 UTC
Forecast valid from 15 at 09 UTC to 16 at 12 UTC
Wind 3 kt from variable directions
Visibility: 10 km
Clear sky
From 15 at 1400 UTC
Wind 8 kt from the West/Northwest
Visibility: 10 km
Clear sky
From 15 at 2300 UTC
Wind 4 kt from variable directions
Visibility: 10 km
Scattered clouds at a height of 25000 ft

TAF: KIAD 150859Z 1509/1612 VRB03KT P6SM SKC FM151400 29008KT P6SM SKC FM152300 VRB04KT P6SM SCT250

Weather observations and forecasts of more than 4000 airports (METAR and TAF reports).

The available stations are represented by yellow and red dots on the map.

Hover mouse over dot to see the name of the station.

Then click to see weather observations and forecasts.

To change the map : click on the green buttons with a black cross to zoom in, on the green button with a dash to zoom out, or on the green arrows for adjacent maps.


METAR-TAF: